Terminal Aerodrome Forecast
Issued by NWS

Home | Current Version | Previous Version | Text Only | Print | Product List | Glossary On
Versions: 1 2 3 4 5 6 7 8 9 10 11 12 13 14
201
FTUS42 KTBW 272339
TAFPIE
TAF
KPIE 272339Z 2800/2824 24008KT P6SM SCT070
     FM280300 09004KT P6SM BKN035
     FM281900 18007KT P6SM FEW200
     FM282300 27005KT P6SM FEW030 SCT110=

USA.gov is the U.S. government's official web portal to all federal, state and local government web resources and services.